sensor_id;sensor_type;location;lat;lon;timestamp;P1;durP1;ratioP1;P2;durP2;ratioP2
3712;SDS011;1872;51.406;6.856;2024-01-15T00:01:30;37.70;;;22.83;;
3712;SDS011;1872;51.406;6.856;2024-01-15T00:03:56;39.53;;;21.77;;
3712;SDS011;1872;51.406;6.856;2024-01-15T00:06:21;35.80;;;19.70;;
3712;SDS011;1872;51.406;6.856;2024-01-15T00:08:47;37.60;;;18.80;;
3712;SDS011;1872;51.406;6.856;2024-01-15T00:11:13;41.27;;;22.00;;
3712;SDS011;1872;51.406;6.856;2024-01-15T00:13:38;28.23;;;19.40;;
3712;SDS011;1872;51.406;6.856;2024-01-15T00:16:04;31.37;;;18.67;;
3712;SDS011;1872;51.406;6.856;2024-01-15T00:18:30;29.77;;;18.80;;
3712;SDS011;1872;51.406;6.856;2024-01-15T00:20:56;34.40;;;20.50;;
3712;SDS011;1872;51.406;6.856;2024-01-15T00:23:22;33.93;;;19.83;;
3712;SDS011;1872;51.406;6.856;2024-01-15T00:25:48;34.53;;;19.70;;
3712;SDS011;1872;51.406;6.856;2024-01-15T00:28:13;35.33;;;19.07;;
3712;SDS011;1872;51.406;6.856;2024-01-15T00:30:39;34.20;;;20.83;;
3712;SDS011;1872;51.406;6.856;2024-01-15T00:33:05;28.37;;;17.80;;
3712;SDS011;1872;51.406;6.856;2024-01-15T00:35:31;34.27;;;19.90;;
3712;SDS011;1872;51.406;6.856;2024-01-15T00:37:56;30.90;;;19.17;;
3712;SDS011;1872;51.406;6.856;2024-01-15T00:40:22;33.67;;;20.17;;
3712;SDS011;1872;51.406;6.856;2024-01-15T00:42:48;33.23;;;19.07;;
3712;SDS011;1872;51.406;6.856;2024-01-15T00:45:13;34.33;;;20.93;;
3712;SDS011;1872;51.406;6.856;2024-01-15T00:47:39;35.43;;;21.30;;
3712;SDS011;1872;51.406;6.856;2024-01-15T00:50:05;32.57;;;20.40;;
3712;SDS011;1872;51.406;6.856;2024-01-15T00:52:31;31.03;;;19.03;;
3712;SDS011;1872;51.406;6.856;2024-01-15T00:54:57;30.40;;;18.83;;
3712;SDS011;1872;51.406;6.856;2024-01-15T00:57:22;31.40;;;19.37;;
3712;SDS011;1872;51.406;6.856;2024-01-15T00:59:48;32.50;;;17.87;;
3712;SDS011;1872;51.406;6.856;2024-01-15T01:02:13;29.43;;;19.33;;
3712;SDS011;1872;51.406;6.856;2024-01-15T01:04:40;36.03;;;18.97;;
3712;SDS011;1872;51.406;6.856;2024-01-15T01:07:05;29.03;;;18.80;;
3712;SDS011;1872;51.406;6.856;2024-01-15T01:09:31;30.70;;;19.00;;
3712;SDS011;1872;51.406;6.856;2024-01-15T01:11:57;26.90;;;17.20;;
3712;SDS011;1872;51.406;6.856;2024-01-15T01:14:22;27.73;;;17.87;;
3712;SDS011;1872;51.406;6.856;2024-01-15T01:16:48;30.50;;;18.03;;
3712;SDS011;1872;51.406;6.856;2024-01-15T01:19:14;32.43;;;18.20;;
3712;SDS011;1872;51.406;6.856;2024-01-15T01:21:40;25.27;;;17.57;;
3712;SDS011;1872;51.406;6.856;2024-01-15T01:24:06;27.90;;;17.73;;
3712;SDS011;1872;51.406;6.856;2024-01-15T01:26:31;28.40;;;18.13;;
3712;SDS011;1872;51.406;6.856;2024-01-15T01:28:57;32.27;;;19.57;;
3712;SDS011;1872;51.406;6.856;2024-01-15T01:31:24;25.97;;;17.80;;
3712;SDS011;1872;51.406;6.856;2024-01-15T01:33:49;30.30;;;18.77;;
3712;SDS011;1872;51.406;6.856;2024-01-15T01:36:15;33.00;;;19.17;;
3712;SDS011;1872;51.406;6.856;2024-01-15T01:38:41;33.80;;;17.90;;
3712;SDS011;1872;51.406;6.856;2024-01-15T01:41:06;33.77;;;18.43;;
3712;SDS011;1872;51.406;6.856;2024-01-15T01:43:32;34.30;;;19.53;;
3712;SDS011;1872;51.406;6.856;2024-01-15T01:45:58;32.10;;;19.87;;
3712;SDS011;1872;51.406;6.856;2024-01-15T01:48:26;28.47;;;16.50;;
3712;SDS011;1872;51.406;6.856;2024-01-15T01:50:56;33.93;;;20.10;;
3712;SDS011;1872;51.406;6.856;2024-01-15T01:53:25;25.40;;;17.17;;
3712;SDS011;1872;51.406;6.856;2024-01-15T01:55:52;32.90;;;18.50;;
3712;SDS011;1872;51.406;6.856;2024-01-15T01:58:18;28.83;;;18.00;;
3712;SDS011;1872;51.406;6.856;2024-01-15T02:00:45;31.57;;;18.70;;
3712;SDS011;1872;51.406;6.856;2024-01-15T02:03:12;29.87;;;17.80;;
3712;SDS011;1872;51.406;6.856;2024-01-15T02:05:37;26.57;;;18.17;;
3712;SDS011;1872;51.406;6.856;2024-01-15T02:08:04;30.40;;;17.93;;
3712;SDS011;1872;51.406;6.856;2024-01-15T02:10:30;23.90;;;15.60;;
3712;SDS011;1872;51.406;6.856;2024-01-15T02:12:56;25.40;;;15.80;;
3712;SDS011;1872;51.406;6.856;2024-01-15T02:15:22;28.30;;;15.63;;
3712;SDS011;1872;51.406;6.856;2024-01-15T02:18:00;28.13;;;14.90;;
3712;SDS011;1872;51.406;6.856;2024-01-15T02:20:28;22.73;;;13.90;;
3712;SDS011;1872;51.406;6.856;2024-01-15T02:23:00;23.10;;;14.53;;
3712;SDS011;1872;51.406;6.856;2024-01-15T02:25:35;24.63;;;13.67;;
3712;SDS011;1872;51.406;6.856;2024-01-15T02:28:04;27.13;;;15.80;;
3712;SDS011;1872;51.406;6.856;2024-01-15T02:30:31;27.50;;;15.33;;
3712;SDS011;1872;51.406;6.856;2024-01-15T02:32:59;26.37;;;15.13;;
3712;SDS011;1872;51.406;6.856;2024-01-15T02:35:25;26.07;;;14.97;;
3712;SDS011;1872;51.406;6.856;2024-01-15T02:37:50;24.87;;;14.97;;
3712;SDS011;1872;51.406;6.856;2024-01-15T02:40:16;28.27;;;14.77;;
3712;SDS011;1872;51.406;6.856;2024-01-15T02:42:42;25.20;;;14.37;;
3712;SDS011;1872;51.406;6.856;2024-01-15T02:45:08;23.97;;;15.40;;
3712;SDS011;1872;51.406;6.856;2024-01-15T02:47:33;21.00;;;14.20;;
3712;SDS011;1872;51.406;6.856;2024-01-15T02:49:59;24.97;;;13.80;;
3712;SDS011;1872;51.406;6.856;2024-01-15T02:52:25;19.80;;;12.50;;
3712;SDS011;1872;51.406;6.856;2024-01-15T02:54:50;18.43;;;12.93;;
3712;SDS011;1872;51.406;6.856;2024-01-15T02:57:16;20.20;;;13.43;;
3712;SDS011;1872;51.406;6.856;2024-01-15T02:59:41;20.13;;;12.00;;
3712;SDS011;1872;51.406;6.856;2024-01-15T03:02:07;18.13;;;12.40;;
3712;SDS011;1872;51.406;6.856;2024-01-15T03:04:33;16.67;;;12.80;;
3712;SDS011;1872;51.406;6.856;2024-01-15T03:06:58;22.10;;;14.00;;
3712;SDS011;1872;51.406;6.856;2024-01-15T03:09:24;14.60;;;11.40;;
3712;SDS011;1872;51.406;6.856;2024-01-15T03:11:50;17.63;;;11.30;;
3712;SDS011;1872;51.406;6.856;2024-01-15T03:14:15;18.83;;;12.80;;
3712;SDS011;1872;51.406;6.856;2024-01-15T03:16:41;20.23;;;12.03;;
3712;SDS011;1872;51.406;6.856;2024-01-15T03:19:07;16.13;;;11.40;;
3712;SDS011;1872;51.406;6.856;2024-01-15T03:21:32;17.57;;;12.40;;
3712;SDS011;1872;51.406;6.856;2024-01-15T03:23:58;16.77;;;11.97;;
3712;SDS011;1872;51.406;6.856;2024-01-15T03:26:23;15.63;;;12.33;;
3712;SDS011;1872;51.406;6.856;2024-01-15T03:28:49;20.00;;;12.80;;
3712;SDS011;1872;51.406;6.856;2024-01-15T03:31:15;19.33;;;12.60;;
3712;SDS011;1872;51.406;6.856;2024-01-15T03:33:40;16.63;;;13.60;;
3712;SDS011;1872;51.406;6.856;2024-01-15T03:36:06;19.70;;;13.07;;
3712;SDS011;1872;51.406;6.856;2024-01-15T03:38:32;24.70;;;13.53;;
3712;SDS011;1872;51.406;6.856;2024-01-15T03:40:58;17.17;;;12.07;;
3712;SDS011;1872;51.406;6.856;2024-01-15T03:43:23;21.47;;;14.13;;
3712;SDS011;1872;51.406;6.856;2024-01-15T03:45:49;21.70;;;14.03;;
3712;SDS011;1872;51.406;6.856;2024-01-15T03:48:15;22.73;;;14.20;;
3712;SDS011;1872;51.406;6.856;2024-01-15T03:50:41;20.10;;;13.67;;
3712;SDS011;1872;51.406;6.856;2024-01-15T03:53:06;24.17;;;13.60;;
3712;SDS011;1872;51.406;6.856;2024-01-15T03:55:32;20.43;;;14.23;;
3712;SDS011;1872;51.406;6.856;2024-01-15T03:57:57;20.33;;;13.80;;
3712;SDS011;1872;51.406;6.856;2024-01-15T04:00:23;23.20;;;13.40;;
3712;SDS011;1872;51.406;6.856;2024-01-15T04:02:49;25.07;;;14.87;;
3712;SDS011;1872;51.406;6.856;2024-01-15T04:05:15;18.43;;;12.23;;
3712;SDS011;1872;51.406;6.856;2024-01-15T04:07:40;27.07;;;13.80;;
3712;SDS011;1872;51.406;6.856;2024-01-15T04:10:06;20.70;;;13.77;;
3712;SDS011;1872;51.406;6.856;2024-01-15T04:12:32;17.97;;;13.07;;
3712;SDS011;1872;51.406;6.856;2024-01-15T04:14:58;23.90;;;13.60;;
3712;SDS011;1872;51.406;6.856;2024-01-15T04:17:23;21.47;;;13.30;;
3712;SDS011;1872;51.406;6.856;2024-01-15T04:19:49;19.00;;;13.33;;
3712;SDS011;1872;51.406;6.856;2024-01-15T04:22:15;24.67;;;15.60;;
3712;SDS011;1872;51.406;6.856;2024-01-15T04:24:40;20.73;;;13.70;;
3712;SDS011;1872;51.406;6.856;2024-01-15T04:27:06;25.57;;;15.93;;
3712;SDS011;1872;51.406;6.856;2024-01-15T04:29:33;23.90;;;14.27;;
3712;SDS011;1872;51.406;6.856;2024-01-15T04:31:58;20.53;;;14.43;;
3712;SDS011;1872;51.406;6.856;2024-01-15T04:34:24;23.67;;;15.43;;
3712;SDS011;1872;51.406;6.856;2024-01-15T04:36:49;18.53;;;13.17;;
3712;SDS011;1872;51.406;6.856;2024-01-15T04:39:15;20.30;;;12.20;;
3712;SDS011;1872;51.406;6.856;2024-01-15T04:41:41;17.90;;;11.90;;
3712;SDS011;1872;51.406;6.856;2024-01-15T04:44:07;24.07;;;13.40;;
3712;SDS011;1872;51.406;6.856;2024-01-15T04:46:32;19.67;;;11.90;;
3712;SDS011;1872;51.406;6.856;2024-01-15T04:48:58;20.60;;;12.43;;
3712;SDS011;1872;51.406;6.856;2024-01-15T04:51:23;20.27;;;13.20;;
3712;SDS011;1872;51.406;6.856;2024-01-15T04:53:49;23.40;;;12.70;;
3712;SDS011;1872;51.406;6.856;2024-01-15T04:56:16;20.77;;;12.67;;
3712;SDS011;1872;51.406;6.856;2024-01-15T04:58:42;19.33;;;12.50;;
3712;SDS011;1872;51.406;6.856;2024-01-15T05:01:08;27.47;;;16.50;;
3712;SDS011;1872;51.406;6.856;2024-01-15T05:03:33;26.90;;;12.83;;
3712;SDS011;1872;51.406;6.856;2024-01-15T05:05:59;19.83;;;13.50;;
3712;SDS011;1872;51.406;6.856;2024-01-15T05:08:25;21.73;;;12.90;;
3712;SDS011;1872;51.406;6.856;2024-01-15T05:10:50;19.27;;;12.47;;
3712;SDS011;1872;51.406;6.856;2024-01-15T05:13:16;16.90;;;12.40;;
3712;SDS011;1872;51.406;6.856;2024-01-15T05:15:42;16.73;;;11.93;;
3712;SDS011;1872;51.406;6.856;2024-01-15T05:18:08;17.77;;;12.10;;
3712;SDS011;1872;51.406;6.856;2024-01-15T05:20:33;16.83;;;12.47;;
3712;SDS011;1872;51.406;6.856;2024-01-15T05:22:59;17.23;;;12.70;;
3712;SDS011;1872;51.406;6.856;2024-01-15T05:25:25;19.90;;;11.53;;
3712;SDS011;1872;51.406;6.856;2024-01-15T05:27:51;17.67;;;11.93;;
3712;SDS011;1872;51.406;6.856;2024-01-15T05:30:16;19.90;;;13.93;;
3712;SDS011;1872;51.406;6.856;2024-01-15T05:32:42;16.23;;;10.93;;
3712;SDS011;1872;51.406;6.856;2024-01-15T05:35:08;16.40;;;11.60;;
3712;SDS011;1872;51.406;6.856;2024-01-15T05:37:34;16.70;;;12.50;;
3712;SDS011;1872;51.406;6.856;2024-01-15T05:39:59;17.03;;;12.60;;
3712;SDS011;1872;51.406;6.856;2024-01-15T05:42:25;18.77;;;12.77;;
3712;SDS011;1872;51.406;6.856;2024-01-15T05:44:51;20.43;;;12.43;;
3712;SDS011;1872;51.406;6.856;2024-01-15T05:47:17;19.83;;;12.17;;
3712;SDS011;1872;51.406;6.856;2024-01-15T05:49:43;19.40;;;12.30;;
3712;SDS011;1872;51.406;6.856;2024-01-15T05:52:09;18.93;;;10.80;;
3712;SDS011;1872;51.406;6.856;2024-01-15T05:54:35;21.90;;;12.63;;
3712;SDS011;1872;51.406;6.856;2024-01-15T05:57:00;20.43;;;12.90;;
3712;SDS011;1872;51.406;6.856;2024-01-15T05:59:26;17.70;;;12.30;;
3712;SDS011;1872;51.406;6.856;2024-01-15T06:01:52;20.50;;;13.77;;
3712;SDS011;1872;51.406;6.856;2024-01-15T06:04:17;20.63;;;12.80;;
3712;SDS011;1872;51.406;6.856;2024-01-15T06:06:43;16.83;;;11.10;;
3712;SDS011;1872;51.406;6.856;2024-01-15T06:09:08;17.73;;;11.40;;
3712;SDS011;1872;51.406;6.856;2024-01-15T06:11:34;18.30;;;10.80;;
3712;SDS011;1872;51.406;6.856;2024-01-15T06:14:00;15.83;;;11.30;;
3712;SDS011;1872;51.406;6.856;2024-01-15T06:16:25;18.70;;;12.23;;
3712;SDS011;1872;51.406;6.856;2024-01-15T06:18:51;24.50;;;11.30;;
3712;SDS011;1872;51.406;6.856;2024-01-15T06:21:17;17.80;;;12.13;;
3712;SDS011;1872;51.406;6.856;2024-01-15T06:23:43;18.50;;;11.37;;
3712;SDS011;1872;51.406;6.856;2024-01-15T06:26:08;21.10;;;10.40;;
3712;SDS011;1872;51.406;6.856;2024-01-15T06:28:37;13.20;;;9.70;;
3712;SDS011;1872;51.406;6.856;2024-01-15T06:31:02;12.40;;;9.20;;
3712;SDS011;1872;51.406;6.856;2024-01-15T06:33:28;14.20;;;9.30;;
3712;SDS011;1872;51.406;6.856;2024-01-15T06:35:54;10.17;;;7.10;;
3712;SDS011;1872;51.406;6.856;2024-01-15T06:38:21;10.83;;;7.80;;
3712;SDS011;1872;51.406;6.856;2024-01-15T06:40:46;9.30;;;7.20;;
3712;SDS011;1872;51.406;6.856;2024-01-15T06:43:13;9.80;;;6.30;;
3712;SDS011;1872;51.406;6.856;2024-01-15T06:45:40;11.27;;;6.70;;
3712;SDS011;1872;51.406;6.856;2024-01-15T06:48:06;7.20;;;6.37;;
3712;SDS011;1872;51.406;6.856;2024-01-15T06:50:32;6.83;;;5.40;;
3712;SDS011;1872;51.406;6.856;2024-01-15T06:52:58;5.10;;;4.60;;
3712;SDS011;1872;51.406;6.856;2024-01-15T06:55:24;6.90;;;5.20;;
3712;SDS011;1872;51.406;6.856;2024-01-15T06:57:50;5.30;;;4.30;;
3712;SDS011;1872;51.406;6.856;2024-01-15T07:00:16;5.30;;;4.27;;
3712;SDS011;1872;51.406;6.856;2024-01-15T07:02:42;8.60;;;5.47;;
3712;SDS011;1872;51.406;6.856;2024-01-15T07:05:08;6.17;;;3.80;;
3712;SDS011;1872;51.406;6.856;2024-01-15T07:07:34;5.03;;;4.17;;
3712;SDS011;1872;51.406;6.856;2024-01-15T07:10:00;4.13;;;3.73;;
3712;SDS011;1872;51.406;6.856;2024-01-15T07:12:27;6.23;;;4.17;;
3712;SDS011;1872;51.406;6.856;2024-01-15T07:14:52;5.20;;;3.83;;
3712;SDS011;1872;51.406;6.856;2024-01-15T07:17:19;5.50;;;4.27;;
3712;SDS011;1872;51.406;6.856;2024-01-15T07:19:45;6.33;;;4.27;;
3712;SDS011;1872;51.406;6.856;2024-01-15T07:22:11;7.17;;;4.70;;
3712;SDS011;1872;51.406;6.856;2024-01-15T07:24:37;7.17;;;5.13;;
3712;SDS011;1872;51.406;6.856;2024-01-15T07:27:03;8.80;;;5.47;;
3712;SDS011;1872;51.406;6.856;2024-01-15T07:29:29;9.20;;;6.50;;
3712;SDS011;1872;51.406;6.856;2024-01-15T07:31:57;8.20;;;7.00;;
3712;SDS011;1872;51.406;6.856;2024-01-15T07:34:23;11.03;;;7.97;;
3712;SDS011;1872;51.406;6.856;2024-01-15T07:36:49;12.10;;;8.93;;
3712;SDS011;1872;51.406;6.856;2024-01-15T07:39:15;10.97;;;8.23;;
3712;SDS011;1872;51.406;6.856;2024-01-15T07:41:40;14.33;;;10.00;;
3712;SDS011;1872;51.406;6.856;2024-01-15T07:44:06;14.90;;;10.50;;
3712;SDS011;1872;51.406;6.856;2024-01-15T07:46:31;13.50;;;10.00;;
3712;SDS011;1872;51.406;6.856;2024-01-15T07:48:57;16.23;;;10.50;;
3712;SDS011;1872;51.406;6.856;2024-01-15T07:51:23;17.60;;;12.03;;
3712;SDS011;1872;51.406;6.856;2024-01-15T07:53:50;22.70;;;12.30;;
3712;SDS011;1872;51.406;6.856;2024-01-15T07:56:16;16.90;;;11.10;;
3712;SDS011;1872;51.406;6.856;2024-01-15T07:58:42;17.77;;;11.67;;
3712;SDS011;1872;51.406;6.856;2024-01-15T08:01:07;17.70;;;11.20;;
3712;SDS011;1872;51.406;6.856;2024-01-15T08:03:33;18.13;;;11.00;;
3712;SDS011;1872;51.406;6.856;2024-01-15T08:05:59;13.73;;;10.60;;
3712;SDS011;1872;51.406;6.856;2024-01-15T08:08:25;18.13;;;11.13;;
3712;SDS011;1872;51.406;6.856;2024-01-15T08:10:53;18.33;;;11.07;;
3712;SDS011;1872;51.406;6.856;2024-01-15T08:13:19;12.47;;;10.63;;
3712;SDS011;1872;51.406;6.856;2024-01-15T08:15:45;17.47;;;11.37;;
3712;SDS011;1872;51.406;6.856;2024-01-15T08:18:13;19.67;;;11.90;;
3712;SDS011;1872;51.406;6.856;2024-01-15T08:20:39;18.30;;;13.43;;
3712;SDS011;1872;51.406;6.856;2024-01-15T08:23:05;15.70;;;10.77;;
3712;SDS011;1872;51.406;6.856;2024-01-15T08:25:30;17.93;;;12.50;;
3712;SDS011;1872;51.406;6.856;2024-01-15T08:27:56;17.03;;;12.70;;
3712;SDS011;1872;51.406;6.856;2024-01-15T08:30:22;18.90;;;12.13;;
3712;SDS011;1872;51.406;6.856;2024-01-15T08:32:52;19.87;;;11.57;;
3712;SDS011;1872;51.406;6.856;2024-01-15T08:35:21;17.37;;;12.17;;
3712;SDS011;1872;51.406;6.856;2024-01-15T08:37:51;14.50;;;10.67;;
3712;SDS011;1872;51.406;6.856;2024-01-15T08:40:17;11.77;;;10.50;;
3712;SDS011;1872;51.406;6.856;2024-01-15T08:42:43;12.03;;;9.90;;
3712;SDS011;1872;51.406;6.856;2024-01-15T08:45:09;11.33;;;9.40;;
3712;SDS011;1872;51.406;6.856;2024-01-15T08:47:35;11.50;;;9.47;;
3712;SDS011;1872;51.406;6.856;2024-01-15T08:50:01;18.53;;;9.10;;
3712;SDS011;1872;51.406;6.856;2024-01-15T08:52:27;10.90;;;8.87;;
3712;SDS011;1872;51.406;6.856;2024-01-15T08:54:52;10.17;;;7.50;;
3712;SDS011;1872;51.406;6.856;2024-01-15T08:57:18;11.53;;;8.60;;
3712;SDS011;1872;51.406;6.856;2024-01-15T08:59:44;10.97;;;8.60;;
3712;SDS011;1872;51.406;6.856;2024-01-15T09:02:10;9.70;;;8.33;;
3712;SDS011;1872;51.406;6.856;2024-01-15T09:04:36;10.27;;;7.37;;
3712;SDS011;1872;51.406;6.856;2024-01-15T09:07:02;7.87;;;7.00;;
3712;SDS011;1872;51.406;6.856;2024-01-15T09:09:28;8.43;;;6.07;;
3712;SDS011;1872;51.406;6.856;2024-01-15T09:11:53;7.97;;;7.03;;
3712;SDS011;1872;51.406;6.856;2024-01-15T09:14:20;11.13;;;6.50;;
3712;SDS011;1872;51.406;6.856;2024-01-15T09:16:47;8.10;;;6.03;;
3712;SDS011;1872;51.406;6.856;2024-01-15T09:19:13;9.10;;;7.30;;
3712;SDS011;1872;51.406;6.856;2024-01-15T09:21:38;8.30;;;6.80;;
3712;SDS011;1872;51.406;6.856;2024-01-15T09:24:05;8.07;;;6.90;;
3712;SDS011;1872;51.406;6.856;2024-01-15T09:26:31;7.13;;;6.43;;
3712;SDS011;1872;51.406;6.856;2024-01-15T09:28:57;7.53;;;6.07;;
3712;SDS011;1872;51.406;6.856;2024-01-15T09:31:23;11.73;;;7.30;;
3712;SDS011;1872;51.406;6.856;2024-01-15T09:33:49;8.73;;;6.17;;
3712;SDS011;1872;51.406;6.856;2024-01-15T09:36:17;9.30;;;6.50;;
3712;SDS011;1872;51.406;6.856;2024-01-15T09:38:43;7.40;;;5.97;;
3712;SDS011;1872;51.406;6.856;2024-01-15T09:41:09;6.67;;;5.50;;
3712;SDS011;1872;51.406;6.856;2024-01-15T09:43:36;6.50;;;5.43;;
3712;SDS011;1872;51.406;6.856;2024-01-15T09:46:03;8.20;;;5.50;;
3712;SDS011;1872;51.406;6.856;2024-01-15T09:48:29;6.83;;;5.70;;
3712;SDS011;1872;51.406;6.856;2024-01-15T09:50:55;6.37;;;5.23;;
3712;SDS011;1872;51.406;6.856;2024-01-15T09:53:23;5.70;;;5.00;;
3712;SDS011;1872;51.406;6.856;2024-01-15T09:55:50;7.00;;;5.00;;
3712;SDS011;1872;51.406;6.856;2024-01-15T09:58:17;6.30;;;5.00;;
3712;SDS011;1872;51.406;6.856;2024-01-15T10:00:44;6.40;;;5.40;;
3712;SDS011;1872;51.406;6.856;2024-01-15T10:03:10;5.60;;;4.70;;
3712;SDS011;1872;51.406;6.856;2024-01-15T10:05:37;5.70;;;4.53;;
3712;SDS011;1872;51.406;6.856;2024-01-15T10:08:03;5.20;;;4.60;;
3712;SDS011;1872;51.406;6.856;2024-01-15T10:10:30;5.17;;;4.20;;
3712;SDS011;1872;51.406;6.856;2024-01-15T10:12:56;4.70;;;4.23;;
3712;SDS011;1872;51.406;6.856;2024-01-15T10:15:26;8.43;;;5.53;;
3712;SDS011;1872;51.406;6.856;2024-01-15T10:17:51;5.20;;;4.27;;
3712;SDS011;1872;51.406;6.856;2024-01-15T10:20:17;6.77;;;4.43;;
3712;SDS011;1872;51.406;6.856;2024-01-15T10:22:44;6.60;;;4.23;;
3712;SDS011;1872;51.406;6.856;2024-01-15T10:25:12;4.43;;;3.97;;
3712;SDS011;1872;51.406;6.856;2024-01-15T10:27:39;6.67;;;5.00;;
3712;SDS011;1872;51.406;6.856;2024-01-15T10:30:08;5.73;;;4.20;;
3712;SDS011;1872;51.406;6.856;2024-01-15T10:32:39;5.20;;;4.37;;
3712;SDS011;1872;51.406;6.856;2024-01-15T10:35:06;6.30;;;4.87;;
3712;SDS011;1872;51.406;6.856;2024-01-15T10:37:33;4.97;;;4.47;;
3712;SDS011;1872;51.406;6.856;2024-01-15T10:40:01;5.10;;;3.73;;
3712;SDS011;1872;51.406;6.856;2024-01-15T10:42:30;5.00;;;3.90;;
3712;SDS011;1872;51.406;6.856;2024-01-15T10:44:55;6.80;;;4.53;;
3712;SDS011;1872;51.406;6.856;2024-01-15T10:47:21;6.37;;;4.40;;
3712;SDS011;1872;51.406;6.856;2024-01-15T10:49:48;6.13;;;4.60;;
3712;SDS011;1872;51.406;6.856;2024-01-15T10:52:14;5.93;;;5.23;;
3712;SDS011;1872;51.406;6.856;2024-01-15T10:54:40;5.93;;;4.80;;
3712;SDS011;1872;51.406;6.856;2024-01-15T10:57:07;4.60;;;4.20;;
3712;SDS011;1872;51.406;6.856;2024-01-15T10:59:33;6.70;;;4.70;;
3712;SDS011;1872;51.406;6.856;2024-01-15T11:01:59;6.33;;;4.60;;
3712;SDS011;1872;51.406;6.856;2024-01-15T11:04:25;5.37;;;4.87;;
3712;SDS011;1872;51.406;6.856;2024-01-15T11:06:53;6.13;;;4.70;;
3712;SDS011;1872;51.406;6.856;2024-01-15T11:09:20;4.70;;;4.00;;
3712;SDS011;1872;51.406;6.856;2024-01-15T11:11:46;6.27;;;5.00;;
3712;SDS011;1872;51.406;6.856;2024-01-15T11:17:04;5.43;;;4.70;;
3712;SDS011;1872;51.406;6.856;2024-01-15T11:19:46;6.27;;;4.83;;
3712;SDS011;1872;51.406;6.856;2024-01-15T11:24:56;5.30;;;4.60;;
3712;SDS011;1872;51.406;6.856;2024-01-15T11:30:10;4.50;;;4.20;;
3712;SDS011;1872;51.406;6.856;2024-01-15T11:32:37;8.00;;;4.90;;
3712;SDS011;1872;51.406;6.856;2024-01-15T11:35:06;6.67;;;5.97;;
3712;SDS011;1872;51.406;6.856;2024-01-15T11:40:43;6.70;;;4.87;;
3712;SDS011;1872;51.406;6.856;2024-01-15T11:43:11;9.70;;;4.40;;
3712;SDS011;1872;51.406;6.856;2024-01-15T11:45:38;6.10;;;4.37;;
3712;SDS011;1872;51.406;6.856;2024-01-15T11:50:47;6.20;;;5.00;;
3712;SDS011;1872;51.406;6.856;2024-01-15T11:53:17;7.80;;;4.75;;
3712;SDS011;1872;51.406;6.856;2024-01-15T11:55:59;5.75;;;4.40;;
3712;SDS011;1872;51.406;6.856;2024-01-15T11:58:28;5.47;;;4.77;;
3712;SDS011;1872;51.406;6.856;2024-01-15T12:00:54;4.33;;;3.90;;
3712;SDS011;1872;51.406;6.856;2024-01-15T12:03:21;7.13;;;4.50;;
3712;SDS011;1872;51.406;6.856;2024-01-15T12:05:48;8.27;;;4.30;;
3712;SDS011;1872;51.406;6.856;2024-01-15T12:08:13;8.00;;;4.30;;
3712;SDS011;1872;51.406;6.856;2024-01-15T12:10:40;5.03;;;3.93;;
3712;SDS011;1872;51.406;6.856;2024-01-15T12:13:12;6.03;;;3.67;;
3712;SDS011;1872;51.406;6.856;2024-01-15T12:15:39;5.30;;;4.30;;
3712;SDS011;1872;51.406;6.856;2024-01-15T12:18:07;6.60;;;3.90;;
3712;SDS011;1872;51.406;6.856;2024-01-15T12:20:35;5.80;;;4.40;;
3712;SDS011;1872;51.406;6.856;2024-01-15T12:23:01;4.57;;;3.43;;
3712;SDS011;1872;51.406;6.856;2024-01-15T12:25:30;5.63;;;4.10;;
3712;SDS011;1872;51.406;6.856;2024-01-15T12:27:57;8.60;;;4.43;;
3712;SDS011;1872;51.406;6.856;2024-01-15T12:30:25;4.33;;;3.93;;
3712;SDS011;1872;51.406;6.856;2024-01-15T12:32:51;4.60;;;3.43;;
3712;SDS011;1872;51.406;6.856;2024-01-15T12:35:17;7.07;;;4.20;;
3712;SDS011;1872;51.406;6.856;2024-01-15T12:37:43;4.10;;;3.70;;
3712;SDS011;1872;51.406;6.856;2024-01-15T12:40:11;6.57;;;4.87;;
3712;SDS011;1872;51.406;6.856;2024-01-15T12:42:37;4.37;;;3.97;;
3712;SDS011;1872;51.406;6.856;2024-01-15T12:45:07;3.30;;;3.00;;
3712;SDS011;1872;51.406;6.856;2024-01-15T12:47:34;5.93;;;4.47;;
3712;SDS011;1872;51.406;6.856;2024-01-15T12:50:01;5.47;;;4.10;;
3712;SDS011;1872;51.406;6.856;2024-01-15T12:52:27;4.70;;;4.30;;
3712;SDS011;1872;51.406;6.856;2024-01-15T12:54:53;6.50;;;3.97;;
3712;SDS011;1872;51.406;6.856;2024-01-15T12:57:19;4.43;;;4.03;;
3712;SDS011;1872;51.406;6.856;2024-01-15T12:59:44;5.50;;;3.57;;
3712;SDS011;1872;51.406;6.856;2024-01-15T13:02:11;7.40;;;3.90;;
3712;SDS011;1872;51.406;6.856;2024-01-15T13:04:37;4.53;;;4.07;;
3712;SDS011;1872;51.406;6.856;2024-01-15T13:07:04;5.00;;;3.90;;
3712;SDS011;1872;51.406;6.856;2024-01-15T13:09:30;6.53;;;4.13;;
3712;SDS011;1872;51.406;6.856;2024-01-15T13:11:55;4.43;;;3.90;;
3712;SDS011;1872;51.406;6.856;2024-01-15T13:14:21;5.13;;;4.63;;
3712;SDS011;1872;51.406;6.856;2024-01-15T13:16:47;4.63;;;3.70;;
3712;SDS011;1872;51.406;6.856;2024-01-15T13:19:13;5.80;;;4.20;;
3712;SDS011;1872;51.406;6.856;2024-01-15T13:21:41;5.33;;;4.33;;
3712;SDS011;1872;51.406;6.856;2024-01-15T13:24:07;5.03;;;4.03;;
3712;SDS011;1872;51.406;6.856;2024-01-15T13:26:36;6.60;;;5.20;;
3712;SDS011;1872;51.406;6.856;2024-01-15T13:29:03;5.90;;;4.80;;
3712;SDS011;1872;51.406;6.856;2024-01-15T13:31:29;6.33;;;4.73;;
3712;SDS011;1872;51.406;6.856;2024-01-15T13:33:55;7.20;;;5.17;;
3712;SDS011;1872;51.406;6.856;2024-01-15T13:36:24;9.40;;;6.90;;
3712;SDS011;1872;51.406;6.856;2024-01-15T13:38:51;10.30;;;5.37;;
3712;SDS011;1872;51.406;6.856;2024-01-15T13:41:20;5.77;;;5.17;;
3712;SDS011;1872;51.406;6.856;2024-01-15T13:43:53;11.57;;;5.90;;
3712;SDS011;1872;51.406;6.856;2024-01-15T13:46:28;7.63;;;5.93;;
3712;SDS011;1872;51.406;6.856;2024-01-15T13:48:57;7.10;;;5.67;;
3712;SDS011;1872;51.406;6.856;2024-01-15T13:51:23;8.30;;;5.70;;
3712;SDS011;1872;51.406;6.856;2024-01-15T13:53:49;5.50;;;5.00;;
3712;SDS011;1872;51.406;6.856;2024-01-15T13:56:15;5.97;;;4.80;;
3712;SDS011;1872;51.406;6.856;2024-01-15T13:58:41;4.60;;;4.30;;
3712;SDS011;1872;51.406;6.856;2024-01-15T14:01:08;4.67;;;4.27;;
3712;SDS011;1872;51.406;6.856;2024-01-15T14:03:34;5.57;;;4.50;;
3712;SDS011;1872;51.406;6.856;2024-01-15T14:06:00;4.73;;;4.27;;
3712;SDS011;1872;51.406;6.856;2024-01-15T14:08:28;3.97;;;3.63;;
3712;SDS011;1872;51.406;6.856;2024-01-15T14:10:54;3.87;;;3.60;;
3712;SDS011;1872;51.406;6.856;2024-01-15T14:13:21;4.07;;;3.30;;
3712;SDS011;1872;51.406;6.856;2024-01-15T14:15:47;3.70;;;3.40;;
3712;SDS011;1872;51.406;6.856;2024-01-15T14:18:14;3.73;;;3.43;;
3712;SDS011;1872;51.406;6.856;2024-01-15T14:20:41;5.20;;;3.67;;
3712;SDS011;1872;51.406;6.856;2024-01-15T14:23:07;4.70;;;3.80;;
3712;SDS011;1872;51.406;6.856;2024-01-15T14:25:33;3.23;;;2.93;;
3712;SDS011;1872;51.406;6.856;2024-01-15T14:27:59;3.67;;;3.30;;
3712;SDS011;1872;51.406;6.856;2024-01-15T14:30:25;3.03;;;2.93;;
3712;SDS011;1872;51.406;6.856;2024-01-15T14:32:52;3.77;;;3.47;;
3712;SDS011;1872;51.406;6.856;2024-01-15T14:35:18;3.83;;;3.20;;
3712;SDS011;1872;51.406;6.856;2024-01-15T14:44:14;5.30;;;3.20;;
3712;SDS011;1872;51.406;6.856;2024-01-15T14:46:40;3.97;;;3.10;;
3712;SDS011;1872;51.406;6.856;2024-01-15T14:49:06;3.03;;;2.80;;
3712;SDS011;1872;51.406;6.856;2024-01-15T14:51:31;3.07;;;2.83;;
3712;SDS011;1872;51.406;6.856;2024-01-15T14:53:57;3.10;;;2.90;;
3712;SDS011;1872;51.406;6.856;2024-01-15T14:56:23;4.20;;;3.13;;
3712;SDS011;1872;51.406;6.856;2024-01-15T14:58:49;3.13;;;2.93;;
3712;SDS011;1872;51.406;6.856;2024-01-15T15:01:14;3.37;;;3.17;;
3712;SDS011;1872;51.406;6.856;2024-01-15T15:03:40;2.80;;;2.60;;
3712;SDS011;1872;51.406;6.856;2024-01-15T15:06:06;2.60;;;2.40;;
3712;SDS011;1872;51.406;6.856;2024-01-15T15:08:34;3.40;;;3.20;;
3712;SDS011;1872;51.406;6.856;2024-01-15T15:11:01;3.30;;;2.70;;
3712;SDS011;1872;51.406;6.856;2024-01-15T15:13:27;4.63;;;3.40;;
3712;SDS011;1872;51.406;6.856;2024-01-15T15:15:53;3.13;;;2.70;;